sensor_id;sensor_type;location;lat;lon;timestamp;pressure;altitude;pressure_sealevel;temperature;humidity
63343;BME280;49465;57.664;39.686;2023-09-07T00:01:33;100598.00;;;13.01;56.59
63343;BME280;49465;57.664;39.686;2023-09-07T00:04:00;100601.38;;;12.91;56.34
63343;BME280;49465;57.664;39.686;2023-09-07T00:06:28;100599.69;;;12.90;56.07
63343;BME280;49465;57.664;39.686;2023-09-07T00:09:03;100609.03;;;13.06;56.59
63343;BME280;49465;57.664;39.686;2023-09-07T00:11:37;100604.41;;;12.97;56.31
63343;BME280;49465;57.664;39.686;2023-09-07T00:14:03;100614.13;;;12.84;56.44
63343;BME280;49465;57.664;39.686;2023-09-07T00:16:36;100608.13;;;12.95;56.19
63343;BME280;49465;57.664;39.686;2023-09-07T00:19:07;100612.53;;;12.81;56.32
63343;BME280;49465;57.664;39.686;2023-09-07T00:21:39;100626.13;;;12.88;56.63
63343;BME280;49465;57.664;39.686;2023-09-07T00:24:11;100616.63;;;12.85;56.49
63343;BME280;49465;57.664;39.686;2023-09-07T00:26:40;100619.19;;;12.74;56.44
63343;BME280;49465;57.664;39.686;2023-09-07T00:29:13;100617.88;;;12.80;56.85
63343;BME280;49465;57.664;39.686;2023-09-07T00:31:39;100612.00;;;12.63;56.83
63343;BME280;49465;57.664;39.686;2023-09-07T00:34:10;100628.75;;;12.75;56.79
63343;BME280;49465;57.664;39.686;2023-09-07T00:36:39;100635.06;;;12.73;57.18
63343;BME280;49465;57.664;39.686;2023-09-07T00:39:11;100636.97;;;12.71;56.95
63343;BME280;49465;57.664;39.686;2023-09-07T00:41:43;100628.31;;;12.56;56.28
63343;BME280;49465;57.664;39.686;2023-09-07T00:44:12;100631.91;;;12.55;56.37
63343;BME280;49465;57.664;39.686;2023-09-07T00:46:47;100651.78;;;12.72;56.30
63343;BME280;49465;57.664;39.686;2023-09-07T00:49:15;100655.25;;;12.59;56.57
63343;BME280;49465;57.664;39.686;2023-09-07T00:51:45;100652.44;;;12.62;56.61
63343;BME280;49465;57.664;39.686;2023-09-07T00:54:14;100645.56;;;12.47;56.51
63343;BME280;49465;57.664;39.686;2023-09-07T00:56:41;100650.06;;;12.45;56.59
63343;BME280;49465;57.664;39.686;2023-09-07T00:59:10;100648.81;;;12.51;56.63
63343;BME280;49465;57.664;39.686;2023-09-07T01:01:40;100651.50;;;12.36;56.50
63343;BME280;49465;57.664;39.686;2023-09-07T01:04:08;100652.56;;;12.34;56.91
63343;BME280;49465;57.664;39.686;2023-09-07T01:06:51;100660.59;;;12.58;56.52
63343;BME280;49465;57.664;39.686;2023-09-07T01:09:28;100668.06;;;12.51;56.74
63343;BME280;49465;57.664;39.686;2023-09-07T01:12:05;100670.41;;;12.29;56.62
63343;BME280;49465;57.664;39.686;2023-09-07T01:14:48;100673.28;;;12.38;56.69
63343;BME280;49465;57.664;39.686;2023-09-07T01:17:17;100677.03;;;12.21;56.67
63343;BME280;49465;57.664;39.686;2023-09-07T01:19:46;100679.75;;;12.20;56.70
63343;BME280;49465;57.664;39.686;2023-09-07T01:22:20;100684.19;;;12.19;57.16
63343;BME280;49465;57.664;39.686;2023-09-07T01:24:52;100680.69;;;12.19;56.75
63343;BME280;49465;57.664;39.686;2023-09-07T01:27:22;100682.06;;;12.24;57.11
63343;BME280;49465;57.664;39.686;2023-09-07T01:29:51;100679.41;;;12.12;56.58
63343;BME280;49465;57.664;39.686;2023-09-07T01:32:24;100688.69;;;12.17;56.68
63343;BME280;49465;57.664;39.686;2023-09-07T01:34:54;100686.56;;;12.10;56.93
63343;BME280;49465;57.664;39.686;2023-09-07T01:37:24;100688.22;;;12.11;57.09
63343;BME280;49465;57.664;39.686;2023-09-07T01:39:53;100695.44;;;11.94;56.95
63343;BME280;49465;57.664;39.686;2023-09-07T01:42:23;100691.00;;;11.95;56.98
63343;BME280;49465;57.664;39.686;2023-09-07T01:44:51;100695.59;;;11.91;57.22
63343;BME280;49465;57.664;39.686;2023-09-07T01:47:23;100695.34;;;11.96;57.61
63343;BME280;49465;57.664;39.686;2023-09-07T01:49:52;100698.88;;;11.95;57.32
63343;BME280;49465;57.664;39.686;2023-09-07T01:52:18;100690.81;;;11.83;56.96
63343;BME280;49465;57.664;39.686;2023-09-07T01:54:50;100698.03;;;11.80;57.43
63343;BME280;49465;57.664;39.686;2023-09-07T01:57:19;100704.31;;;11.92;57.23
63343;BME280;49465;57.664;39.686;2023-09-07T01:59:53;100709.84;;;11.87;56.87
63343;BME280;49465;57.664;39.686;2023-09-07T02:02:23;100710.81;;;11.86;57.88
63343;BME280;49465;57.664;39.686;2023-09-07T02:04:52;100710.91;;;11.70;57.22
63343;BME280;49465;57.664;39.686;2023-09-07T02:07:26;100713.78;;;11.80;57.66
63343;BME280;49465;57.664;39.686;2023-09-07T02:09:56;100712.97;;;11.65;57.21
63343;BME280;49465;57.664;39.686;2023-09-07T02:12:28;100720.19;;;11.76;57.77
63343;BME280;49465;57.664;39.686;2023-09-07T02:14:56;100717.56;;;11.61;57.40
63343;BME280;49465;57.664;39.686;2023-09-07T02:17:22;100716.16;;;11.56;57.55
63343;BME280;49465;57.664;39.686;2023-09-07T02:19:51;100725.94;;;11.54;57.64
63343;BME280;49465;57.664;39.686;2023-09-07T02:22:20;100712.97;;;11.65;57.93
63343;BME280;49465;57.664;39.686;2023-09-07T02:24:58;100718.69;;;11.72;57.37
63343;BME280;49465;57.664;39.686;2023-09-07T02:27:33;100715.06;;;11.45;58.04
63343;BME280;49465;57.664;39.686;2023-09-07T02:30:06;100726.88;;;11.53;57.72
63343;BME280;49465;57.664;39.686;2023-09-07T02:32:47;100713.16;;;11.62;57.66
63343;BME280;49465;57.664;39.686;2023-09-07T02:35:19;100720.50;;;11.57;58.04
63343;BME280;49465;57.664;39.686;2023-09-07T02:37:48;100729.50;;;11.53;58.51
63343;BME280;49465;57.664;39.686;2023-09-07T02:40:21;100731.19;;;11.54;58.10
63343;BME280;49465;57.664;39.686;2023-09-07T02:43:02;100725.81;;;11.70;57.75
63343;BME280;49465;57.664;39.686;2023-09-07T02:45:34;100732.22;;;11.51;57.94
63343;BME280;49465;57.664;39.686;2023-09-07T02:48:06;100727.13;;;11.48;57.94
63343;BME280;49465;57.664;39.686;2023-09-07T02:50:36;100732.47;;;11.32;58.12
63343;BME280;49465;57.664;39.686;2023-09-07T02:53:08;100737.19;;;11.41;58.18
63343;BME280;49465;57.664;39.686;2023-09-07T02:55:39;100738.47;;;11.48;58.34
63343;BME280;49465;57.664;39.686;2023-09-07T02:58:09;100739.91;;;11.25;58.18
63343;BME280;49465;57.664;39.686;2023-09-07T03:00:50;100738.47;;;11.48;58.05
63343;BME280;49465;57.664;39.686;2023-09-07T03:03:24;100743.56;;;11.37;58.32
63343;BME280;49465;57.664;39.686;2023-09-07T03:05:58;100752.44;;;11.35;58.71
63343;BME280;49465;57.664;39.686;2023-09-07T03:08:37;100740.72;;;11.26;58.16
63343;BME280;49465;57.664;39.686;2023-09-07T03:11:10;100743.47;;;11.39;58.59
63343;BME280;49465;57.664;39.686;2023-09-07T03:13:40;100738.47;;;11.20;58.77
63343;BME280;49465;57.664;39.686;2023-09-07T03:16:18;100748.16;;;11.19;58.53
63343;BME280;49465;57.664;39.686;2023-09-07T03:18:52;100757.81;;;11.33;59.28
63343;BME280;49465;57.664;39.686;2023-09-07T03:21:19;100756.66;;;11.23;58.39
63343;BME280;49465;57.664;39.686;2023-09-07T03:23:52;100761.81;;;11.24;59.28
63343;BME280;49465;57.664;39.686;2023-09-07T03:26:24;100763.78;;;11.21;59.07
63343;BME280;49465;57.664;39.686;2023-09-07T03:28:51;100770.66;;;11.23;59.28
63343;BME280;49465;57.664;39.686;2023-09-07T03:31:23;100775.97;;;11.22;59.43
63343;BME280;49465;57.664;39.686;2023-09-07T03:33:49;100774.09;;;11.24;59.57
63343;BME280;49465;57.664;39.686;2023-09-07T03:36:16;100775.97;;;11.22;59.82
63343;BME280;49465;57.664;39.686;2023-09-07T03:38:42;100779.34;;;11.24;59.75
63343;BME280;49465;57.664;39.686;2023-09-07T03:41:09;100781.03;;;11.25;59.72
63343;BME280;49465;57.664;39.686;2023-09-07T03:43:41;100777.09;;;11.32;60.04
63343;BME280;49465;57.664;39.686;2023-09-07T03:46:07;100779.16;;;11.27;60.45
63343;BME280;49465;57.664;39.686;2023-09-07T03:48:34;100798.31;;;11.29;60.32
63343;BME280;49465;57.664;39.686;2023-09-07T03:51:06;100793.06;;;11.58;59.82
63343;BME280;49465;57.664;39.686;2023-09-07T03:53:32;100781.91;;;11.40;60.11
63343;BME280;49465;57.664;39.686;2023-09-07T03:55:59;100788.66;;;11.44;60.04
63343;BME280;49465;57.664;39.686;2023-09-07T03:58:31;100785.00;;;11.46;59.94
63343;BME280;49465;57.664;39.686;2023-09-07T04:01:02;100785.88;;;11.61;59.44
63343;BME280;49465;57.664;39.686;2023-09-07T04:03:28;100785.19;;;11.58;59.81
63343;BME280;49465;57.664;39.686;2023-09-07T04:05:57;100790.28;;;11.61;60.39
63343;BME280;49465;57.664;39.686;2023-09-07T04:08:29;100794.97;;;11.84;60.06
63343;BME280;49465;57.664;39.686;2023-09-07T04:11:02;100796.84;;;11.82;60.41
63343;BME280;49465;57.664;39.686;2023-09-07T04:13:32;100797.16;;;11.92;60.18
63343;BME280;49465;57.664;39.686;2023-09-07T04:16:08;100802.13;;;11.97;60.34
63343;BME280;49465;57.664;39.686;2023-09-07T04:18:42;100813.19;;;12.02;60.17
63343;BME280;49465;57.664;39.686;2023-09-07T04:21:15;100815.72;;;12.18;60.22
63343;BME280;49465;57.664;39.686;2023-09-07T04:23:50;100820.31;;;12.14;60.40
63343;BME280;49465;57.664;39.686;2023-09-07T04:26:19;100811.69;;;12.12;60.39
63343;BME280;49465;57.664;39.686;2023-09-07T04:28:45;100813.91;;;12.18;59.96
63343;BME280;49465;57.664;39.686;2023-09-07T04:31:17;100824.22;;;12.36;60.22
63343;BME280;49465;57.664;39.686;2023-09-07T04:33:47;100823.09;;;12.40;60.47
63343;BME280;49465;57.664;39.686;2023-09-07T04:36:19;100817.59;;;12.57;60.16
63343;BME280;49465;57.664;39.686;2023-09-07T04:38:52;100818.16;;;12.62;59.69
63343;BME280;49465;57.664;39.686;2023-09-07T04:41:24;100824.78;;;12.68;59.90
63343;BME280;49465;57.664;39.686;2023-09-07T04:43:56;100834.81;;;12.76;59.67
63343;BME280;49465;57.664;39.686;2023-09-07T04:46:28;100834.44;;;12.82;60.18
63343;BME280;49465;57.664;39.686;2023-09-07T04:48:57;100831.16;;;12.78;60.16
63343;BME280;49465;57.664;39.686;2023-09-07T04:51:26;100841.84;;;13.02;59.67
63343;BME280;49465;57.664;39.686;2023-09-07T04:54:01;100839.69;;;13.22;59.57
63343;BME280;49465;57.664;39.686;2023-09-07T04:56:42;100838.53;;;13.26;59.98
63343;BME280;49465;57.664;39.686;2023-09-07T04:59:13;100845.50;;;13.27;59.15
63343;BME280;49465;57.664;39.686;2023-09-07T05:01:48;100849.56;;;13.45;59.00
63343;BME280;49465;57.664;39.686;2023-09-07T05:04:20;100845.97;;;13.47;58.95
63343;BME280;49465;57.664;39.686;2023-09-07T05:06:54;100854.53;;;13.63;58.52
63343;BME280;49465;57.664;39.686;2023-09-07T05:09:23;100851.06;;;13.62;58.06
63343;BME280;49465;57.664;39.686;2023-09-07T05:12:00;100854.63;;;14.00;57.96
63343;BME280;49465;57.664;39.686;2023-09-07T05:14:29;100859.47;;;13.93;58.21
63343;BME280;49465;57.664;39.686;2023-09-07T05:16:56;100856.19;;;13.90;58.11
63343;BME280;49465;57.664;39.686;2023-09-07T05:19:22;100860.19;;;13.95;57.73
63343;BME280;49465;57.664;39.686;2023-09-07T05:21:54;100859.16;;;13.98;57.58
63343;BME280;49465;57.664;39.686;2023-09-07T05:24:28;100864.69;;;14.19;57.49
63343;BME280;49465;57.664;39.686;2023-09-07T05:26:58;100867.88;;;14.24;57.43
63343;BME280;49465;57.664;39.686;2023-09-07T05:29:32;100865.34;;;14.22;57.15
63343;BME280;49465;57.664;39.686;2023-09-07T05:32:04;100867.13;;;14.35;57.35
63343;BME280;49465;57.664;39.686;2023-09-07T05:34:35;100876.59;;;14.37;57.35
63343;BME280;49465;57.664;39.686;2023-09-07T05:37:07;100865.78;;;14.53;56.77
63343;BME280;49465;57.664;39.686;2023-09-07T05:39:39;100873.41;;;14.58;56.36
63343;BME280;49465;57.664;39.686;2023-09-07T05:42:08;100863.88;;;14.55;56.22
63343;BME280;49465;57.664;39.686;2023-09-07T05:44:37;100874.38;;;14.57;55.98
63343;BME280;49465;57.664;39.686;2023-09-07T05:47:03;100870.44;;;14.62;55.92
63343;BME280;49465;57.664;39.686;2023-09-07T05:49:30;100871.81;;;14.68;56.12
63343;BME280;49465;57.664;39.686;2023-09-07T05:51:56;100879.78;;;14.79;56.42
63343;BME280;49465;57.664;39.686;2023-09-07T05:54:23;100871.47;;;14.97;56.01
63343;BME280;49465;57.664;39.686;2023-09-07T05:56:49;100876.41;;;15.01;55.52
63343;BME280;49465;57.664;39.686;2023-09-07T05:59:18;100877.31;;;15.13;55.39
63343;BME280;49465;57.664;39.686;2023-09-07T06:01:48;100878.69;;;15.30;55.27
63343;BME280;49465;57.664;39.686;2023-09-07T06:04:17;100886.88;;;15.38;54.97
63343;BME280;49465;57.664;39.686;2023-09-07T06:06:47;100878.94;;;15.38;55.60
63343;BME280;49465;57.664;39.686;2023-09-07T06:09:13;100889.78;;;15.47;54.76
63343;BME280;49465;57.664;39.686;2023-09-07T06:11:40;100891.09;;;15.52;54.94
63343;BME280;49465;57.664;39.686;2023-09-07T06:14:09;100891.59;;;15.57;54.53
63343;BME280;49465;57.664;39.686;2023-09-07T06:16:43;100893.72;;;15.76;54.32
63343;BME280;49465;57.664;39.686;2023-09-07T06:19:12;100907.91;;;15.75;54.23
63343;BME280;49465;57.664;39.686;2023-09-07T06:21:42;100900.19;;;15.72;54.06
63343;BME280;49465;57.664;39.686;2023-09-07T06:24:08;100897.00;;;15.80;53.84
63343;BME280;49465;57.664;39.686;2023-09-07T06:26:34;100890.84;;;15.91;53.74
63343;BME280;49465;57.664;39.686;2023-09-07T06:29:01;100897.84;;;16.03;53.41
63343;BME280;49465;57.664;39.686;2023-09-07T06:31:27;100901.59;;;16.12;53.15
63343;BME280;49465;57.664;39.686;2023-09-07T06:33:54;100899.41;;;16.17;52.70
63343;BME280;49465;57.664;39.686;2023-09-07T06:36:23;100913.25;;;16.32;52.85
63343;BME280;49465;57.664;39.686;2023-09-07T06:38:52;100898.47;;;16.29;52.64
63343;BME280;49465;57.664;39.686;2023-09-07T06:41:18;100898.47;;;16.29;52.09
63343;BME280;49465;57.664;39.686;2023-09-07T06:43:48;100911.53;;;16.42;52.47
63343;BME280;49465;57.664;39.686;2023-09-07T06:46:17;100910.59;;;16.43;52.29
63343;BME280;49465;57.664;39.686;2023-09-07T06:48:43;100910.59;;;16.43;52.10
63343;BME280;49465;57.664;39.686;2023-09-07T06:51:10;100904.31;;;16.55;52.49
63343;BME280;49465;57.664;39.686;2023-09-07T06:53:37;100921.50;;;16.72;51.94
63343;BME280;49465;57.664;39.686;2023-09-07T06:56:04;100908.84;;;16.87;51.43
63343;BME280;49465;57.664;39.686;2023-09-07T06:58:32;100911.97;;;17.04;51.09
63343;BME280;49465;57.664;39.686;2023-09-07T07:01:01;100908.41;;;17.14;50.93
63343;BME280;49465;57.664;39.686;2023-09-07T07:03:29;100915.41;;;17.36;50.26
63343;BME280;49465;57.664;39.686;2023-09-07T07:05:56;100916.09;;;17.50;50.36
63343;BME280;49465;57.664;39.686;2023-09-07T07:08:23;100909.09;;;17.70;49.78
63343;BME280;49465;57.664;39.686;2023-09-07T07:10:49;100906.78;;;17.76;49.38
63343;BME280;49465;57.664;39.686;2023-09-07T07:13:25;100917.81;;;17.82;49.14
63343;BME280;49465;57.664;39.686;2023-09-07T07:15:52;100903.88;;;18.01;48.93
63343;BME280;49465;57.664;39.686;2023-09-07T07:18:21;100910.97;;;18.21;48.59
63343;BME280;49465;57.664;39.686;2023-09-07T07:20:48;100903.97;;;18.20;48.67
63343;BME280;49465;57.664;39.686;2023-09-07T07:23:17;100909.09;;;18.43;48.08
63343;BME280;49465;57.664;39.686;2023-09-07T07:25:48;100896.38;;;18.56;48.16
63343;BME280;49465;57.664;39.686;2023-09-07T07:28:17;100906.06;;;18.67;47.96
63343;BME280;49465;57.664;39.686;2023-09-07T07:30:43;100908.66;;;18.88;47.50
63343;BME280;49465;57.664;39.686;2023-09-07T07:33:10;100906.72;;;19.00;47.24
63343;BME280;49465;57.664;39.686;2023-09-07T07:35:45;100918.19;;;19.20;47.32
63343;BME280;49465;57.664;39.686;2023-09-07T07:38:13;100921.00;;;19.18;46.40
63343;BME280;49465;57.664;39.686;2023-09-07T07:40:42;100929.41;;;19.23;46.85
63343;BME280;49465;57.664;39.686;2023-09-07T07:43:15;100927.00;;;19.40;47.21
63343;BME280;49465;57.664;39.686;2023-09-07T07:45:42;100934.72;;;19.52;46.62
63343;BME280;49465;57.664;39.686;2023-09-07T07:48:08;100937.63;;;19.79;46.10
63343;BME280;49465;57.664;39.686;2023-09-07T07:50:46;100940.38;;;19.97;46.22
63343;BME280;49465;57.664;39.686;2023-09-07T07:53:12;100937.34;;;19.82;45.39
63343;BME280;49465;57.664;39.686;2023-09-07T07:55:38;100937.16;;;19.93;45.55
63343;BME280;49465;57.664;39.686;2023-09-07T07:58:08;100936.88;;;20.06;45.58
63343;BME280;49465;57.664;39.686;2023-09-07T08:00:38;100937.69;;;20.06;45.29
63343;BME280;49465;57.664;39.686;2023-09-07T08:03:07;100942.34;;;20.04;45.29
63343;BME280;49465;57.664;39.686;2023-09-07T08:05:33;100931.25;;;20.09;45.04
63343;BME280;49465;57.664;39.686;2023-09-07T08:08:00;100933.59;;;20.22;44.86
63343;BME280;49465;57.664;39.686;2023-09-07T08:10:33;100923.88;;;20.30;44.38
63343;BME280;49465;57.664;39.686;2023-09-07T08:13:00;100925.63;;;20.49;44.62
63343;BME280;49465;57.664;39.686;2023-09-07T08:15:29;100924.06;;;20.57;44.34
63343;BME280;49465;57.664;39.686;2023-09-07T08:17:58;100921.00;;;20.79;44.18
63343;BME280;49465;57.664;39.686;2023-09-07T08:20:27;100926.72;;;21.02;43.57
63343;BME280;49465;57.664;39.686;2023-09-07T08:22:56;100912.78;;;21.08;43.14
63343;BME280;49465;57.664;39.686;2023-09-07T08:25:24;100917.69;;;21.31;42.64
63343;BME280;49465;57.664;39.686;2023-09-07T08:27:52;100912.69;;;21.36;42.43
63343;BME280;49465;57.664;39.686;2023-09-07T08:30:29;100913.72;;;21.53;42.41
63343;BME280;49465;57.664;39.686;2023-09-07T08:33:01;100916.50;;;21.69;41.81
63343;BME280;49465;57.664;39.686;2023-09-07T08:35:28;100916.66;;;21.68;41.86
63343;BME280;49465;57.664;39.686;2023-09-07T08:37:59;100914.78;;;21.86;42.10
63343;BME280;49465;57.664;39.686;2023-09-07T08:40:30;100918.28;;;21.87;41.03
63343;BME280;49465;57.664;39.686;2023-09-07T08:43:02;100916.97;;;21.91;40.71
63343;BME280;49465;57.664;39.686;2023-09-07T08:45:31;100908.53;;;22.04;40.38
63343;BME280;49465;57.664;39.686;2023-09-07T08:48:08;100908.94;;;22.17;40.10
63343;BME280;49465;57.664;39.686;2023-09-07T08:50:38;100905.59;;;22.15;40.71
63343;BME280;49465;57.664;39.686;2023-09-07T08:53:09;100911.88;;;22.06;39.32
63343;BME280;49465;57.664;39.686;2023-09-07T08:55:38;100915.38;;;22.06;40.42
63343;BME280;49465;57.664;39.686;2023-09-07T08:58:04;100898.94;;;22.19;39.77
63343;BME280;49465;57.664;39.686;2023-09-07T09:00:31;100908.84;;;22.01;39.11
63343;BME280;49465;57.664;39.686;2023-09-07T09:03:00;100904.03;;;22.04;39.01
63343;BME280;49465;57.664;39.686;2023-09-07T09:05:29;100917.63;;;22.19;39.72
63343;BME280;49465;57.664;39.686;2023-09-07T09:08:05;100916.41;;;22.40;39.93
63343;BME280;49465;57.664;39.686;2023-09-07T09:10:31;100917.41;;;22.12;39.14
63343;BME280;49465;57.664;39.686;2023-09-07T09:13:01;100920.75;;;22.15;38.93
63343;BME280;49465;57.664;39.686;2023-09-07T09:15:30;100915.72;;;22.03;38.94
63343;BME280;49465;57.664;39.686;2023-09-07T09:17:57;100912.06;;;22.12;39.07
63343;BME280;49465;57.664;39.686;2023-09-07T09:20:27;100919.22;;;22.30;38.35
63343;BME280;49465;57.664;39.686;2023-09-07T09:22:55;100914.91;;;22.37;38.23
63343;BME280;49465;57.664;39.686;2023-09-07T09:25:22;100919.47;;;22.53;38.58
63343;BME280;49465;57.664;39.686;2023-09-07T09:27:49;100917.16;;;22.58;37.53
63343;BME280;49465;57.664;39.686;2023-09-07T09:30:15;100915.31;;;22.50;37.02
63343;BME280;49465;57.664;39.686;2023-09-07T09:32:43;100915.97;;;22.53;37.72
63343;BME280;49465;57.664;39.686;2023-09-07T09:35:09;100906.66;;;22.65;37.60
63343;BME280;49465;57.664;39.686;2023-09-07T09:37:50;100911.97;;;23.07;38.64
63343;BME280;49465;57.664;39.686;2023-09-07T09:40:22;100919.44;;;22.96;37.79
63343;BME280;49465;57.664;39.686;2023-09-07T09:42:53;100910.06;;;22.92;36.61
63343;BME280;49465;57.664;39.686;2023-09-07T09:45:21;100915.72;;;22.80;36.66
63343;BME280;49465;57.664;39.686;2023-09-07T09:47:52;100914.75;;;22.89;36.73
63343;BME280;49465;57.664;39.686;2023-09-07T09:50:24;100917.66;;;23.45;38.06
63343;BME280;49465;57.664;39.686;2023-09-07T09:52:54;100918.41;;;22.88;35.88
63343;BME280;49465;57.664;39.686;2023-09-07T09:55:24;100909.03;;;22.93;35.94
63343;BME280;49465;57.664;39.686;2023-09-07T09:57:51;100911.41;;;22.87;36.58
63343;BME280;49465;57.664;39.686;2023-09-07T10:00:18;100915.72;;;22.80;36.15
63343;BME280;49465;57.664;39.686;2023-09-07T10:03:02;100919.94;;;22.99;36.72
63343;BME280;49465;57.664;39.686;2023-09-07T10:05:36;100926.19;;;22.74;36.34
63343;BME280;49465;57.664;39.686;2023-09-07T10:08:08;100925.34;;;22.65;36.48
63343;BME280;49465;57.664;39.686;2023-09-07T10:10:38;100926.03;;;22.67;36.64
63343;BME280;49465;57.664;39.686;2023-09-07T10:13:16;100931.06;;;22.70;36.42
63343;BME280;49465;57.664;39.686;2023-09-07T10:16:07;100928.75;;;22.83;36.67
63343;BME280;49465;57.664;39.686;2023-09-07T10:18:38;100927.50;;;22.61;36.04
63343;BME280;49465;57.664;39.686;2023-09-07T10:21:05;100921.91;;;22.38;35.65
63343;BME280;49465;57.664;39.686;2023-09-07T10:23:43;100933.63;;;22.45;36.64
63343;BME280;49465;57.664;39.686;2023-09-07T10:26:17;100926.28;;;22.47;36.57
63343;BME280;49465;57.664;39.686;2023-09-07T10:28:45;100931.81;;;22.20;36.37
63343;BME280;49465;57.664;39.686;2023-09-07T10:31:24;100930.97;;;22.45;36.31
63343;BME280;49465;57.664;39.686;2023-09-07T10:33:50;100934.28;;;22.39;35.83
63343;BME280;49465;57.664;39.686;2023-09-07T10:36:27;100964.34;;;22.41;36.88
63343;BME280;49465;57.664;39.686;2023-09-07T10:38:55;100986.41;;;21.99;37.33
63343;BME280;49465;57.664;39.686;2023-09-07T10:41:23;100950.31;;;21.87;38.02
63343;BME280;49465;57.664;39.686;2023-09-07T10:43:54;100940.72;;;22.02;37.31
63343;BME280;49465;57.664;39.686;2023-09-07T10:46:45;100941.81;;;22.18;37.52
63343;BME280;49465;57.664;39.686;2023-09-07T10:49:27;100939.63;;;21.87;38.92
63343;BME280;49465;57.664;39.686;2023-09-07T10:52:14;100935.78;;;22.07;39.33
63343;BME280;49465;57.664;39.686;2023-09-07T10:54:43;100937.84;;;21.69;40.20
63343;BME280;49465;57.664;39.686;2023-09-07T10:57:12;100933.47;;;21.86;40.66
63343;BME280;49465;57.664;39.686;2023-09-07T10:59:47;100931.91;;;22.02;39.66
63343;BME280;49465;57.664;39.686;2023-09-07T11:02:16;100939.41;;;22.06;39.55
63343;BME280;49465;57.664;39.686;2023-09-07T11:04:49;100965.00;;;21.91;39.48
63343;BME280;49465;57.664;39.686;2023-09-07T11:07:27;100973.06;;;21.73;39.81
63343;BME280;49465;57.664;39.686;2023-09-07T11:10:04;100972.34;;;21.45;39.97
63343;BME280;49465;57.664;39.686;2023-09-07T11:12:37;100972.25;;;21.55;39.99
63343;BME280;49465;57.664;39.686;2023-09-07T11:15:20;100967.25;;;21.42;39.66
63343;BME280;49465;57.664;39.686;2023-09-07T11:17:49;100953.69;;;20.99;40.38
63343;BME280;49465;57.664;39.686;2023-09-07T11:20:24;100964.88;;;21.03;40.50
63343;BME280;49465;57.664;39.686;2023-09-07T11:22:55;100960.22;;;20.87;41.28
63343;BME280;49465;57.664;39.686;2023-09-07T11:25:34;100966.16;;;20.99;41.04
63343;BME280;49465;57.664;39.686;2023-09-07T11:28:06;100965.75;;;20.76;42.18
63343;BME280;49465;57.664;39.686;2023-09-07T11:30:35;100953.75;;;20.62;42.46
63343;BME280;49465;57.664;39.686;2023-09-07T11:33:07;100954.03;;;20.68;42.56
63343;BME280;49465;57.664;39.686;2023-09-07T11:35:36;100953.50;;;20.83;42.95
63343;BME280;49465;57.664;39.686;2023-09-07T11:38:13;100954.63;;;21.08;42.96
63343;BME280;49465;57.664;39.686;2023-09-07T11:40:40;100961.38;;;21.02;44.28
63343;BME280;49465;57.664;39.686;2023-09-07T11:43:13;100952.03;;;21.16;42.87
63343;BME280;49465;57.664;39.686;2023-09-07T11:45:45;100955.72;;;21.51;43.05
63343;BME280;49465;57.664;39.686;2023-09-07T11:48:12;100948.69;;;21.50;42.29
63343;BME280;49465;57.664;39.686;2023-09-07T11:50:42;100956.94;;;21.57;42.15
63343;BME280;49465;57.664;39.686;2023-09-07T11:53:15;100964.28;;;21.81;41.64
63343;BME280;49465;57.664;39.686;2023-09-07T11:55:41;100967.09;;;21.79;41.21
63343;BME280;49465;57.664;39.686;2023-09-07T11:58:09;100962.13;;;21.84;40.31
63343;BME280;49465;57.664;39.686;2023-09-07T12:00:35;100959.13;;;21.61;40.05
63343;BME280;49465;57.664;39.686;2023-09-07T12:03:02;100964.78;;;21.58;39.56
63343;BME280;49465;57.664;39.686;2023-09-07T12:05:29;100962.06;;;21.40;39.12
63343;BME280;49465;57.664;39.686;2023-09-07T12:07:55;100979.09;;;21.21;39.46
63343;BME280;49465;57.664;39.686;2023-09-07T12:10:24;100989.97;;;21.10;40.25
63343;BME280;49465;57.664;39.686;2023-09-07T12:12:51;100994.16;;;20.85;40.86
63343;BME280;49465;57.664;39.686;2023-09-07T12:15:17;100992.56;;;20.74;40.98
63343;BME280;49465;57.664;39.686;2023-09-07T12:17:44;100986.28;;;20.65;41.09
63343;BME280;49465;57.664;39.686;2023-09-07T12:20:17;100981.09;;;20.64;41.13
63343;BME280;49465;57.664;39.686;2023-09-07T12:22:47;100978.88;;;20.59;41.38
63343;BME280;49465;57.664;39.686;2023-09-07T12:25:14;100986.09;;;20.39;41.65
63343;BME280;49465;57.664;39.686;2023-09-07T12:27:41;100986.66;;;20.33;42.14
63343;BME280;49465;57.664;39.686;2023-09-07T12:30:12;100983.91;;;20.25;42.38
63343;BME280;49465;57.664;39.686;2023-09-07T12:32:42;100988.63;;;20.31;43.64
63343;BME280;49465;57.664;39.686;2023-09-07T12:35:08;100971.72;;;20.12;43.46
63343;BME280;49465;57.664;39.686;2023-09-07T12:37:36;100983.38;;;20.11;44.17
63343;BME280;49465;57.664;39.686;2023-09-07T12:40:03;100975.97;;;20.05;44.25
63343;BME280;49465;57.664;39.686;2023-09-07T12:42:44;100974.25;;;20.14;45.04
63343;BME280;49465;57.664;39.686;2023-09-07T12:45:11;100973.78;;;20.28;43.78
63343;BME280;49465;57.664;39.686;2023-09-07T12:47:38;100965.91;;;20.37;44.01
63343;BME280;49465;57.664;39.686;2023-09-07T12:50:16;100962.16;;;20.67;43.48
63343;BME280;49465;57.664;39.686;2023-09-07T12:52:54;100960.47;;;20.66;43.57
63343;BME280;49465;57.664;39.686;2023-09-07T12:55:23;100956.53;;;20.98;44.58
63343;BME280;49465;57.664;39.686;2023-09-07T12:57:53;100954.41;;;21.01;43.60